createdAt,value
2022-10-13T00:00:15.093Z,1.73
2022-10-13T00:04:16.872Z,1.58
2022-10-13T00:08:21.388Z,1.55
2022-10-13T00:12:22.985Z,1.67
2022-10-13T00:16:25.100Z,1.92
2022-10-13T00:20:26.678Z,1.60
2022-10-13T00:24:28.318Z,1.20
2022-10-13T00:28:30.010Z,1.48
2022-10-13T00:32:31.669Z,1.45
2022-10-13T00:36:33.286Z,1.40
2022-10-13T00:40:42.410Z,1.40
2022-10-13T00:45:06.799Z,1.75
2022-10-13T00:49:11.409Z,1.50
2022-10-13T00:53:16.256Z,1.30
2022-10-13T00:57:19.145Z,1.65
2022-10-13T01:01:20.854Z,1.38
2022-10-13T01:05:24.895Z,1.40
2022-10-13T01:09:26.558Z,1.58
2022-10-13T01:13:41.248Z,1.67
2022-10-13T01:17:52.157Z,1.45
2022-10-13T01:22:18.569Z,1.50
2022-10-13T01:30:40.010Z,1.67
2022-10-13T01:34:51.813Z,1.30
2022-10-13T01:39:05.698Z,1.50
2022-10-13T01:43:14.110Z,1.30
2022-10-13T01:47:17.536Z,1.63
2022-10-13T01:51:23.440Z,1.25
2022-10-13T01:55:25.064Z,1.70
2022-10-13T01:59:29.516Z,1.65
2022-10-13T02:03:38.830Z,1.52
2022-10-13T02:07:49.218Z,1.40
2022-10-13T02:12:02.317Z,1.30
2022-10-13T02:16:04.239Z,1.05
2022-10-13T02:20:07.120Z,1.65
2022-10-13T02:24:09.886Z,1.38
2022-10-13T02:28:14.145Z,1.50
2022-10-13T02:32:16.036Z,1.33
2022-10-13T02:36:17.836Z,1.50
2022-10-13T02:40:19.680Z,1.98
2022-10-13T02:44:21.278Z,1.25
2022-10-13T02:48:23.220Z,1.50
2022-10-13T02:52:24.891Z,1.27
2022-10-13T02:56:26.468Z,1.38
2022-10-13T03:00:28.120Z,1.45
2022-10-13T03:04:29.842Z,1.40
2022-10-13T03:08:35.549Z,1.35
2022-10-13T03:12:37.233Z,1.58
2022-10-13T03:16:38.859Z,1.25
2022-10-13T03:20:40.569Z,1.50
2022-10-13T03:24:42.537Z,1.58
2022-10-13T03:28:48.057Z,1.38
2022-10-13T03:32:49.739Z,1.17
2022-10-13T03:36:51.390Z,1.38
2022-10-13T03:40:52.968Z,1.23
2022-10-13T03:44:56.554Z,1.40
2022-10-13T03:48:58.646Z,1.70
2022-10-13T03:53:00.256Z,1.20
2022-10-13T03:57:01.875Z,1.42
2022-10-13T04:01:05.246Z,1.20
2022-10-13T04:05:07.024Z,1.45
2022-10-13T04:09:09.472Z,1.10
2022-10-13T04:13:11.272Z,1.20
2022-10-13T04:17:12.948Z,1.58
2022-10-13T04:21:15.254Z,1.20
2022-10-13T04:25:16.985Z,1.70
2022-10-13T04:29:18.622Z,1.52
2022-10-13T04:33:20.233Z,1.52
2022-10-13T04:37:21.830Z,1.42
2022-10-13T04:41:24.094Z,1.60
2022-10-13T04:45:26.638Z,1.40
2022-10-13T04:49:28.405Z,1.48
2022-10-13T04:53:30.771Z,1.33
2022-10-13T04:57:32.390Z,1.65
2022-10-13T05:01:38.268Z,1.40
2022-10-13T05:05:40.373Z,1.42
2022-10-13T05:09:42.003Z,1.38
2022-10-13T05:13:43.680Z,1.27
2022-10-13T05:17:45.699Z,1.45
2022-10-13T05:21:47.405Z,1.52
2022-10-13T05:25:49.058Z,1.30
2022-10-13T05:29:50.644Z,1.33
2022-10-13T05:33:52.695Z,1.50
2022-10-13T05:37:54.454Z,1.75
2022-10-13T05:41:56.236Z,2.10
2022-10-13T05:45:58.564Z,1.40
2022-10-13T05:50:00.303Z,1.70
2022-10-13T05:54:17.278Z,1.63
2022-10-13T05:58:19.311Z,1.85
2022-10-13T06:02:24.746Z,1.55
2022-10-13T06:06:31.139Z,2.00
2022-10-13T06:10:33.224Z,1.88
2022-10-13T06:14:35.372Z,2.20
2022-10-13T06:18:37.020Z,1.92
2022-10-13T06:22:39.308Z,2.35
2022-10-13T06:26:41.179Z,2.15
2022-10-13T06:30:46.829Z,2.35
2022-10-13T06:34:48.538Z,2.00
2022-10-13T06:38:50.558Z,2.45
2022-10-13T06:42:52.343Z,2.17
2022-10-13T06:46:53.997Z,1.90
2022-10-13T06:50:56.114Z,2.20
2022-10-13T06:54:57.752Z,2.08
2022-10-13T06:58:59.443Z,2.63
2022-10-13T07:03:01.121Z,2.40
2022-10-13T07:07:03.363Z,2.47
2022-10-13T07:11:16.089Z,2.20
2022-10-13T07:15:18.141Z,2.58
2022-10-13T07:19:19.863Z,2.45
2022-10-13T07:23:21.457Z,2.20
2022-10-13T07:27:24.507Z,2.38
2022-10-13T07:31:26.778Z,2.42
2022-10-13T07:35:30.857Z,2.30
2022-10-13T07:39:32.827Z,2.58
2022-10-13T07:43:34.562Z,2.10
2022-10-13T07:47:36.200Z,2.50
2022-10-13T07:51:39.022Z,2.47
2022-10-13T07:55:40.780Z,2.40
2022-10-13T07:59:42.390Z,2.63
2022-10-13T08:03:48.930Z,2.63
2022-10-13T08:07:54.754Z,2.05
2022-10-13T08:12:00.829Z,2.53
2022-10-13T08:16:03.912Z,2.53
2022-10-13T08:20:06.804Z,2.30
2022-10-13T08:24:14.212Z,2.67
2022-10-13T08:28:25.809Z,2.80
2022-10-13T08:32:27.527Z,2.95
2022-10-13T08:36:37.515Z,2.78
2022-10-13T08:40:39.351Z,2.63
2022-10-13T08:45:21.790Z,3.00
2022-10-13T08:49:13.160Z,2.42
2022-10-13T08:53:34.970Z,2.72
2022-10-13T08:57:36.560Z,2.28
2022-10-13T09:01:38.371Z,2.67
2022-10-13T09:06:08.225Z,2.28
2022-10-13T09:10:10.114Z,2.15
2022-10-13T09:14:22.920Z,2.50
2022-10-13T09:18:30.689Z,2.17
2022-10-13T09:22:38.276Z,2.55
2022-10-13T09:26:40.642Z,2.65
2022-10-13T09:30:47.077Z,2.28
2022-10-13T09:34:49.477Z,2.35
2022-10-13T09:39:08.874Z,2.50
2022-10-13T09:43:30.120Z,2.58
2022-10-13T09:47:33.126Z,2.47
2022-10-13T09:51:41.055Z,2.63
2022-10-13T09:55:42.702Z,2.58
2022-10-13T09:59:53.719Z,2.30
2022-10-13T10:03:57.320Z,2.35
2022-10-13T10:09:01.524Z,1.90
2022-10-13T10:13:01.487Z,1.80
2022-10-13T10:17:32.436Z,2.15
2022-10-13T10:21:43.227Z,2.45
2022-10-13T10:25:50.602Z,2.75
2022-10-13T10:30:05.701Z,2.00
2022-10-13T10:34:34.521Z,2.33
2022-10-13T10:38:45.288Z,2.05
2022-10-13T10:43:17.426Z,2.00
2022-10-13T10:47:36.236Z,2.55
2022-10-13T10:51:39.259Z,1.95
2022-10-13T10:55:47.674Z,2.40
2022-10-13T11:00:03.042Z,2.10
2022-10-13T11:04:43.896Z,1.88
2022-10-13T11:08:48.297Z,2.03
2022-10-13T11:12:52.747Z,2.17
2022-10-13T11:17:06.796Z,2.00
2022-10-13T11:21:08.506Z,2.25
2022-10-13T11:25:34.207Z,2.00
2022-10-13T11:29:48.923Z,1.85
2022-10-13T11:33:54.080Z,2.30
2022-10-13T11:38:07.203Z,2.10
2022-10-13T11:42:24.872Z,2.10
2022-10-13T11:47:02.883Z,2.10
2022-10-13T11:51:23.679Z,2.08
2022-10-13T11:55:52.803Z,2.53
2022-10-13T11:59:56.774Z,1.67
2022-10-13T12:03:58.438Z,2.13
2022-10-13T12:08:04.138Z,2.25
2022-10-13T12:12:15.963Z,2.08
2022-10-13T12:16:17.997Z,1.95
2022-10-13T12:20:25.403Z,2.13
2022-10-13T12:24:29.662Z,2.17
2022-10-13T12:28:57.322Z,2.20
2022-10-13T12:33:01.013Z,2.97
2022-10-13T12:37:10.297Z,2.80
2022-10-13T12:41:15.406Z,2.13
2022-10-13T12:45:24.019Z,2.60
2022-10-13T12:49:27.221Z,2.80
2022-10-13T12:53:29.265Z,2.65
2022-10-13T12:57:38.390Z,2.90
2022-10-13T13:01:40.720Z,2.97
2022-10-13T13:05:49.239Z,3.03
2022-10-13T13:10:08.959Z,2.67
2022-10-13T13:14:23.418Z,2.97
2022-10-13T13:18:31.423Z,3.05
2022-10-13T13:22:33.738Z,2.97
2022-10-13T13:26:35.402Z,3.10
2022-10-13T13:30:37.046Z,3.10
2022-10-13T13:34:38.661Z,2.97
2022-10-13T13:38:40.292Z,2.80
2022-10-13T13:42:41.905Z,2.95
2022-10-13T13:46:43.676Z,2.58
2022-10-13T13:50:45.269Z,3.05
2022-10-13T13:54:46.962Z,2.95
2022-10-13T13:58:48.612Z,2.72
2022-10-13T14:02:50.515Z,3.03
2022-10-13T14:06:52.924Z,3.25
2022-10-13T14:10:54.681Z,3.28
2022-10-13T14:14:56.795Z,4.22
2022-10-13T14:18:58.858Z,3.40
2022-10-13T14:23:00.445Z,3.10
2022-10-13T14:27:02.046Z,2.85
2022-10-13T14:31:07.654Z,3.05
2022-10-13T14:35:09.383Z,3.53
2022-10-13T14:39:10.993Z,3.13
2022-10-13T14:43:12.592Z,3.35
2022-10-13T14:47:14.258Z,3.30
2022-10-13T14:51:16.278Z,3.13
2022-10-13T14:55:17.880Z,3.20
2022-10-13T14:59:19.642Z,3.15
2022-10-13T15:03:23.031Z,3.15
2022-10-13T15:07:24.760Z,3.50
2022-10-13T15:11:26.766Z,3.60
2022-10-13T15:15:28.481Z,4.00
2022-10-13T15:19:30.149Z,3.30
2022-10-13T15:23:32.594Z,3.70
2022-10-13T15:27:38.075Z,3.72
2022-10-13T15:31:43.247Z,3.70
2022-10-13T15:35:48.397Z,3.65
2022-10-13T15:39:54.537Z,3.70
2022-10-13T15:43:58.573Z,4.15
2022-10-13T15:48:00.179Z,4.32
2022-10-13T15:52:01.848Z,3.80
2022-10-13T15:56:03.527Z,4.10
2022-10-13T16:00:07.442Z,4.00
2022-10-13T16:04:09.028Z,3.97
2022-10-13T16:08:10.879Z,4.03
2022-10-13T16:12:12.437Z,3.92
2022-10-13T16:16:14.643Z,4.20
2022-10-13T16:20:16.323Z,4.40
2022-10-13T16:24:17.890Z,4.13
2022-10-13T16:28:19.567Z,4.85
2022-10-13T16:32:21.489Z,4.88
2022-10-13T16:36:25.166Z,4.63
2022-10-13T16:40:27.509Z,4.03
2022-10-13T16:44:29.119Z,4.63
2022-10-13T16:48:32.071Z,4.32
2022-10-13T16:52:33.639Z,4.35
2022-10-13T16:56:35.414Z,4.30
2022-10-13T17:00:38.157Z,4.57
2022-10-13T17:04:39.788Z,4.85
2022-10-13T17:08:42.193Z,4.60
2022-10-13T17:12:43.965Z,4.30
2022-10-13T17:16:45.620Z,4.53
2022-10-13T17:20:54.980Z,4.82
2022-10-13T17:24:56.609Z,4.28
2022-10-13T17:28:58.240Z,4.68
2022-10-13T17:33:04.277Z,4.53
2022-10-13T17:37:06.388Z,4.07
2022-10-13T17:41:09.795Z,4.78
2022-10-13T17:45:11.517Z,4.40
2022-10-13T17:49:13.615Z,4.32
2022-10-13T17:53:15.270Z,4.90
2022-10-13T17:57:16.958Z,4.88
2022-10-13T18:01:31.714Z,4.47
2022-10-13T18:05:34.905Z,4.40
2022-10-13T18:09:36.541Z,4.07
2022-10-13T18:13:38.998Z,4.47
2022-10-13T18:17:40.743Z,4.57
2022-10-13T18:21:42.461Z,4.45
2022-10-13T18:25:44.041Z,4.50
2022-10-13T18:29:45.640Z,4.10
2022-10-13T18:33:48.061Z,3.97
2022-10-13T18:37:51.269Z,4.32
2022-10-13T18:41:54.700Z,4.45
2022-10-13T18:46:04.175Z,4.28
2022-10-13T18:50:06.214Z,4.20
2022-10-13T18:54:08.468Z,4.15
2022-10-13T18:58:10.679Z,4.00
2022-10-13T19:02:14.561Z,4.18
2022-10-13T19:06:17.772Z,4.32
2022-10-13T19:10:19.413Z,4.18
2022-10-13T19:14:21.007Z,4.30
2022-10-13T19:18:22.598Z,4.30
2022-10-13T19:22:24.224Z,4.07
2022-10-13T19:26:29.674Z,4.30
2022-10-13T19:30:31.294Z,4.10
2022-10-13T19:34:33.265Z,4.05
2022-10-13T19:38:35.315Z,4.35
2022-10-13T19:42:37.023Z,4.32
2022-10-13T19:46:41.127Z,4.32
2022-10-13T19:50:43.192Z,3.97
2022-10-13T19:54:44.777Z,4.03
2022-10-13T19:58:46.375Z,4.45
2022-10-13T20:02:48.260Z,4.40
2022-10-13T20:06:50.760Z,4.35
2022-10-13T20:10:52.355Z,4.28
2022-10-13T20:14:53.978Z,4.10
2022-10-13T20:18:58.731Z,4.20
2022-10-13T20:23:00.349Z,4.35
2022-10-13T20:27:02.163Z,4.50
2022-10-13T20:31:04.915Z,4.00
2022-10-13T20:35:06.793Z,4.78
2022-10-13T20:39:08.955Z,4.32
2022-10-13T20:43:10.733Z,4.60
2022-10-13T20:47:12.326Z,4.15
2022-10-13T20:51:16.171Z,4.00
2022-10-13T20:55:17.879Z,4.43
2022-10-13T20:59:19.522Z,4.20
2022-10-13T21:03:23.160Z,4.45
2022-10-13T21:07:24.858Z,4.32
2022-10-13T21:11:26.962Z,4.25
2022-10-13T21:15:28.757Z,4.10
2022-10-13T21:19:30.382Z,4.50
2022-10-13T21:23:32.317Z,4.13
2022-10-13T21:27:33.936Z,4.45
2022-10-13T21:31:35.742Z,4.28
2022-10-13T21:35:37.394Z,3.47
2022-10-13T21:39:38.989Z,4.18
2022-10-13T21:43:41.113Z,3.92
2022-10-13T21:47:42.730Z,4.20
2022-10-13T21:51:44.373Z,3.63
2022-10-13T21:55:45.989Z,4.10
2022-10-13T21:59:48.101Z,3.80
2022-10-13T22:03:54.711Z,3.70
2022-10-13T22:07:56.340Z,4.13
2022-10-13T22:11:58.427Z,4.20
2022-10-13T22:16:09.513Z,4.53
2022-10-13T22:20:11.239Z,4.25
2022-10-13T22:24:15.311Z,3.95
2022-10-13T22:28:16.969Z,3.95
2022-10-13T22:32:18.604Z,4.10
2022-10-13T22:36:23.399Z,3.97
2022-10-13T22:40:25.047Z,4.30
2022-10-13T22:44:26.719Z,3.65
2022-10-13T22:48:28.594Z,3.85
2022-10-13T22:52:30.425Z,4.00
2022-10-13T22:56:33.859Z,4.25
2022-10-13T23:00:37.204Z,3.83
2022-10-13T23:04:38.931Z,3.72
2022-10-13T23:08:41.224Z,3.95
2022-10-13T23:12:42.813Z,3.83
2022-10-13T23:16:44.402Z,3.70
2022-10-13T23:20:46.012Z,3.80
2022-10-13T23:24:47.654Z,3.88
2022-10-13T23:28:49.485Z,4.00
2022-10-13T23:32:51.138Z,4.00
2022-10-13T23:36:52.715Z,3.70
2022-10-13T23:40:54.592Z,3.65
2022-10-13T23:44:56.222Z,3.97
2022-10-13T23:48:57.834Z,3.50
2022-10-13T23:52:59.487Z,4.70
2022-10-13T23:57:01.087Z,3.50
